Time;durP1;ratioP1;P1;durP2;ratioP2;P2;SDS_P1;SDS_P2;PMS_P1;PMS_P2;Temp;Humidity;BMP_temperature;BMP_pressure;BME280_temperature;BME280_humidity;BME280_pressure;Samples;Min_cycle;Max_cycle;Signal;HPM_P1;HPM_P2
2022/05/28 00:00:59;;;;;;;8.90;2.25;;;13.10;99.90;;;;;;5090201;28;20032;-77
2022/05/28 00:03:26;;;;;;;9.63;2.42;;;13.10;99.90;;;;;;5076839;28;20483;-77
2022/05/28 00:05:52;;;;;;;10.20;2.05;;;13.10;99.90;;;;;;5075287;28;20036;-76
2022/05/28 00:08:17;;;;;;;12.50;2.40;;;13.10;99.90;;;;;;5083096;28;20107;-78
2022/05/28 00:10:45;;;;;;;7.78;2.33;;;13.10;99.90;;;;;;5095927;28;20078;-76
2022/05/28 00:13:11;;;;;;;9.32;1.98;;;13.10;99.90;;;;;;5095844;28;20020;-76
2022/05/28 00:15:37;;;;;;;7.82;1.77;;;13.00;99.90;;;;;;5096703;28;20024;-78
2022/05/28 00:18:02;;;;;;;11.63;1.80;;;13.00;99.90;;;;;;5115754;28;20084;-77
2022/05/28 00:20:29;;;;;;;11.88;2.17;;;12.90;99.90;;;;;;5098130;28;20029;-76
2022/05/28 00:22:55;;;;;;;11.73;2.15;;;12.90;99.90;;;;;;5088586;28;20455;-76
2022/05/28 00:25:21;;;;;;;11.88;2.08;;;12.90;99.90;;;;;;5075363;28;20109;-76
2022/05/28 00:27:46;;;;;;;6.63;1.80;;;12.90;99.90;;;;;;5091616;28;20088;-77
2022/05/28 00:30:15;;;;;;;10.88;2.17;;;12.90;99.90;;;;;;5076904;28;20400;-76
2022/05/28 00:32:42;;;;;;;7.25;2.25;;;12.90;99.90;;;;;;5089709;28;20126;-76
2022/05/28 00:35:11;;;;;;;11.00;2.22;;;12.90;99.90;;;;;;5079464;28;20094;-78
2022/05/28 00:37:37;;;;;;;8.57;2.10;;;12.90;99.90;;;;;;5075271;28;20025;-77
2022/05/28 00:40:11;;;;;;;9.82;1.83;;;12.80;99.90;;;;;;5075110;28;20177;-76
2022/05/28 00:42:36;;;;;;;7.15;2.05;;;12.80;99.90;;;;;;5075195;28;20365;-75
2022/05/28 00:45:03;;;;;;;5.93;1.67;;;12.80;99.90;;;;;;5075004;28;20024;-76
2022/05/28 00:47:30;;;;;;;9.38;1.85;;;12.80;99.90;;;;;;5074879;28;20036;-75
2022/05/28 00:49:55;;;;;;;8.80;2.08;;;12.70;99.90;;;;;;5074571;28;20025;-77
2022/05/28 00:52:24;;;;;;;7.78;2.00;;;12.60;99.90;;;;;;5075092;28;20093;-76
2022/05/28 00:54:50;;;;;;;49.00;5.20;;;12.70;99.90;;;;;;5074978;28;20082;-75
2022/05/28 00:57:17;;;;;;;13.23;1.90;;;12.70;99.90;;;;;;5074950;28;20032;-76
2022/05/28 00:59:44;;;;;;;8.77;2.22;;;12.60;99.90;;;;;;5074182;28;20072;-77
2022/05/28 01:02:38;;;;;;;9.02;3.30;;;12.50;99.90;;;;;;5073467;28;20097;-76
2022/05/28 01:05:15;;;;;;;11.75;2.63;;;12.50;99.90;;;;;;5072912;28;20028;-76
2022/05/28 01:08:32;;;;;;;9.32;2.38;;;12.40;99.90;;;;;;5073838;28;20062;-74
2022/05/28 01:11:05;;;;;;;9.85;2.10;;;12.40;99.90;;;;;;5072970;28;20047;-75
2022/05/28 01:13:45;;;;;;;7.03;1.70;;;12.30;99.90;;;;;;5073918;28;20028;-76
2022/05/28 01:16:19;;;;;;;15.93;2.75;;;12.20;99.90;;;;;;5073363;28;20032;-76
2022/05/28 01:18:56;;;;;;;8.35;2.05;;;12.10;99.90;;;;;;5073355;28;20028;-76
2022/05/28 01:21:27;;;;;;;15.65;3.58;;;12.10;99.90;;;;;;5073521;28;20025;-75
2022/05/28 01:24:27;;;;;;;11.63;1.98;;;12.20;99.90;;;;;;5073447;28;20473;-76
2022/05/28 01:26:52;;;;;;;8.02;1.67;;;12.20;99.90;;;;;;5072773;28;20078;-77
2022/05/28 01:29:20;;;;;;;8.93;1.90;;;12.20;99.90;;;;;;5073304;28;20016;-77
2022/05/28 01:31:47;;;;;;;13.02;2.22;;;12.20;99.90;;;;;;5073467;28;20029;-76
2022/05/28 01:34:15;;;;;;;11.45;2.65;;;12.20;99.90;;;;;;5073321;28;20024;-78
2022/05/28 01:36:42;;;;;;;14.65;2.35;;;12.20;99.90;;;;;;5073141;28;20028;-77
2022/05/28 01:39:08;;;;;;;11.02;1.90;;;12.20;99.90;;;;;;5072634;28;20147;-76
2022/05/28 01:41:36;;;;;;;11.77;2.42;;;12.10;99.90;;;;;;5073473;28;20025;-76
2022/05/28 01:44:03;;;;;;;15.55;2.85;;;12.10;99.90;;;;;;5072694;28;20103;-75
2022/05/28 01:46:31;;;;;;;13.90;2.35;;;12.10;99.90;;;;;;5072559;28;20508;-77
2022/05/28 01:48:58;;;;;;;16.73;2.83;;;12.10;99.90;;;;;;5057309;28;20036;-76
2022/05/28 01:51:27;;;;;;;17.20;2.75;;;12.10;99.90;;;;;;5086366;28;20430;-76
2022/05/28 01:54:07;;;;;;;11.47;2.10;;;12.10;99.90;;;;;;5081124;28;20032;-76
2022/05/28 01:56:34;;;;;;;13.05;2.22;;;12.10;99.90;;;;;;5083847;28;20279;-76
2022/05/28 01:59:00;;;;;;;19.88;3.95;;;12.10;99.90;;;;;;5036684;28;1040268;-75
2022/05/28 02:01:26;;;;;;;12.07;2.20;;;12.00;99.90;;;;;;5073585;28;20098;-76
2022/05/28 02:03:55;;;;;;;15.65;3.05;;;12.00;99.90;;;;;;5073598;28;20025;-77
2022/05/28 02:06:21;;;;;;;15.48;1.98;;;12.00;99.90;;;;;;5073774;28;20029;-78
2022/05/28 02:08:49;;;;;;;17.85;2.35;;;11.90;99.90;;;;;;5073385;28;20025;-75
2022/05/28 02:11:27;;;;;;;11.02;2.25;;;11.80;99.90;;;;;;5086193;28;20028;-75
2022/05/28 02:14:17;;;;;;;15.63;2.53;;;11.70;99.90;;;;;;5093562;28;20032;-76
2022/05/28 02:17:19;;;;;;;17.83;2.97;;;11.70;99.90;;;;;;5093697;28;20472;-76
2022/05/28 02:20:06;;;;;;;11.93;2.40;;;11.60;99.90;;;;;;5071740;28;20043;-76
2022/05/28 02:22:45;;;;;;;17.73;2.45;;;11.50;99.90;;;;;;5106558;28;20028;-77
2022/05/28 02:25:16;;;;;;;16.73;3.05;;;12.40;99.90;;;;;;5099508;28;20032;-77
2022/05/28 02:27:44;;;;;;;11.85;2.20;;;11.40;99.90;;;;;;5093295;28;20024;-77
2022/05/28 02:30:11;;;;;;;11.98;2.33;;;11.40;99.90;;;;;;5092920;28;20035;-77
2022/05/28 02:32:36;;;;;;;18.95;3.15;;;11.40;99.90;;;;;;5101222;28;20028;-75
2022/05/28 02:35:02;;;;;;;11.38;2.50;;;11.20;99.90;;;;;;5098447;28;20065;-78
2022/05/28 02:37:28;;;;;;;12.57;2.47;;;11.10;99.90;;;;;;5104780;28;20028;-77
2022/05/28 02:39:54;;;;;;;20.33;3.03;;;11.10;99.90;;;;;;5102469;28;20099;-78
2022/05/28 02:42:20;;;;;;;12.60;2.75;;;11.00;99.90;;;;;;5093175;28;20031;-77
2022/05/28 02:44:46;;;;;;;15.07;2.22;;;10.90;99.90;;;;;;5093311;28;20036;-77
2022/05/28 02:47:11;;;;;;;11.43;2.40;;;10.90;99.90;;;;;;5092662;28;20028;-77
2022/05/28 02:49:37;;;;;;;14.35;2.15;;;10.90;99.90;;;;;;5092936;28;20403;-76
2022/05/28 02:52:05;;;;;;;13.57;2.72;;;10.80;99.90;;;;;;5090383;28;20380;-76
2022/05/28 02:54:32;;;;;;;20.98;3.05;;;10.80;99.90;;;;;;5092914;28;20073;-75
2022/05/28 02:56:58;;;;;;;20.23;2.78;;;10.80;99.90;;;;;;5092033;28;20023;-75
2022/05/28 02:59:23;;;;;;;13.43;3.13;;;10.80;99.90;;;;;;5077871;28;20055;-76
2022/05/28 03:01:50;;;;;;;14.48;2.72;;;10.80;99.90;;;;;;5092329;28;20059;-76
2022/05/28 03:04:17;;;;;;;17.55;3.20;;;10.80;99.90;;;;;;5092796;28;20028;-75
2022/05/28 03:06:43;;;;;;;14.45;2.38;;;10.80;99.90;;;;;;5092890;28;20043;-75
2022/05/28 03:09:09;;;;;;;13.45;2.67;;;10.70;99.90;;;;;;5092164;28;20024;-76
2022/05/28 03:11:37;;;;;;;13.35;2.22;;;10.70;99.90;;;;;;5092542;28;20110;-76
2022/05/28 03:14:03;;;;;;;19.40;2.00;;;10.70;99.90;;;;;;5085165;28;20034;-77
2022/05/28 03:16:28;;;;;;;11.55;2.55;;;10.80;99.90;;;;;;5085584;28;20063;-77
2022/05/28 03:18:54;;;;;;;16.13;2.63;;;10.70;99.90;;;;;;5091492;28;20051;-76
2022/05/28 03:21:19;;;;;;;15.90;2.67;;;10.80;99.90;;;;;;5092226;28;20035;-77
2022/05/28 03:23:47;;;;;;;13.43;2.38;;;10.80;99.90;;;;;;5089417;28;20033;-75
2022/05/28 03:26:24;;;;;;;19.25;2.50;;;10.70;99.90;;;;;;5080434;28;20032;-77
2022/05/28 03:28:50;;;;;;;8.35;1.83;;;10.80;99.90;;;;;;5091617;28;20028;-76
2022/05/28 03:31:17;;;;;;;13.93;2.25;;;10.80;99.90;;;;;;5092706;28;20573;-78
2022/05/28 03:33:43;;;;;;;9.38;1.80;;;10.80;99.90;;;;;;5091908;28;20027;-75
2022/05/28 03:36:09;;;;;;;11.77;1.98;;;10.70;99.90;;;;;;5091724;28;20023;-76
2022/05/28 03:38:35;;;;;;;9.80;2.30;;;10.70;99.90;;;;;;5091748;28;20050;-76
2022/05/28 03:41:01;;;;;;;10.77;1.85;;;10.70;99.90;;;;;;5091689;28;20024;-77
2022/05/28 03:43:27;;;;;;;13.38;2.10;;;10.60;99.90;;;;;;5092072;28;20099;-77
2022/05/28 03:45:53;;;;;;;10.25;2.13;;;10.50;99.90;;;;;;5091285;28;20135;-77
2022/05/28 03:48:19;;;;;;;12.65;2.45;;;10.60;99.90;;;;;;5091997;28;20104;-77
2022/05/28 03:50:45;;;;;;;8.75;1.45;;;10.50;99.90;;;;;;5092097;28;20387;-77
2022/05/28 03:53:11;;;;;;;8.73;1.52;;;10.50;99.90;;;;;;5091395;28;20028;-78
2022/05/28 03:55:38;;;;;;;5.85;1.33;;;10.50;99.90;;;;;;5091996;28;20111;-77
2022/05/28 03:58:04;;;;;;;14.90;2.70;;;10.50;99.90;;;;;;5091404;28;20564;-77
2022/05/28 04:00:30;;;;;;;5.82;1.38;;;10.50;99.90;;;;;;5091535;28;20028;-77
2022/05/28 04:02:57;;;;;;;7.82;1.65;;;10.50;99.90;;;;;;5091315;28;20031;-75
2022/05/28 04:05:23;;;;;;;7.15;1.45;;;10.60;99.90;;;;;;5091806;28;20468;-78
2022/05/28 04:07:49;;;;;;;11.65;1.60;;;10.60;99.90;;;;;;5091179;28;20035;-76
2022/05/28 04:10:14;;;;;;;11.38;2.00;;;10.60;99.90;;;;;;5091721;28;20416;-76
2022/05/28 04:12:40;;;;;;;12.73;1.33;;;10.60;99.90;;;;;;5092110;28;20032;-76
2022/05/28 04:15:07;;;;;;;9.00;1.80;;;10.60;99.90;;;;;;5091013;28;20024;-76
2022/05/28 04:17:32;;;;;;;12.18;2.33;;;10.70;99.90;;;;;;5091755;28;20049;-77
2022/05/28 04:19:58;;;;;;;9.18;1.40;;;10.90;99.90;;;;;;5091018;28;20406;-77
2022/05/28 04:22:23;;;;;;;9.48;1.48;;;10.80;99.90;;;;;;5091218;28;20028;-76
2022/05/28 04:24:49;;;;;;;7.10;1.05;;;10.90;99.90;;;;;;5098715;28;20081;-75
2022/05/28 04:27:15;;;;;;;7.32;1.25;;;11.00;99.90;;;;;;5103917;28;20069;-76
2022/05/28 04:29:40;;;;;;;4.47;1.13;;;11.00;99.90;;;;;;5092408;28;20480;-76
2022/05/28 04:32:06;;;;;;;5.60;1.20;;;11.00;99.90;;;;;;5073356;28;20078;-76
2022/05/28 04:34:32;;;;;;;6.35;1.25;;;11.00;99.90;;;;;;5074174;28;20361;-77
2022/05/28 04:36:57;;;;;;;10.63;1.40;;;11.10;99.90;;;;;;5092091;28;20028;-77
2022/05/28 04:39:23;;;;;;;5.65;1.13;;;11.20;99.90;;;;;;5098844;28;20020;-75
2022/05/28 04:41:48;;;;;;;4.72;1.13;;;11.20;99.90;;;;;;5096328;28;20028;-76
2022/05/28 04:44:14;;;;;;;4.40;1.15;;;11.20;99.90;;;;;;5106430;28;20487;-76
2022/05/28 04:46:40;;;;;;;6.25;1.20;;;11.20;99.90;;;;;;5091479;28;20149;-76
2022/05/28 04:49:05;;;;;;;5.63;0.95;;;11.20;99.90;;;;;;5091377;28;20020;-77
2022/05/28 04:51:31;;;;;;;2.35;1.00;;;11.20;99.90;;;;;;5095134;28;20026;-76
2022/05/28 04:53:57;;;;;;;5.18;1.08;;;11.20;99.90;;;;;;5094784;28;20016;-75
2022/05/28 04:56:22;;;;;;;6.50;1.38;;;11.30;99.90;;;;;;5094990;28;20073;-78
2022/05/28 04:58:48;;;;;;;6.78;1.70;;;11.30;99.90;;;;;;5094628;28;20404;-76
2022/05/28 05:01:16;;;;;;;5.97;1.70;;;11.50;99.90;;;;;;5095045;28;20028;-77
2022/05/28 05:03:42;;;;;;;6.63;2.42;;;11.60;99.90;;;;;;5094726;28;20035;-76
2022/05/28 05:06:08;;;;;;;12.70;2.10;;;11.60;99.90;;;;;;5094334;28;20036;-77
2022/05/28 05:08:33;;;;;;;9.20;1.42;;;11.70;99.90;;;;;;5095101;28;20028;-76
2022/05/28 05:10:59;;;;;;;5.22;1.52;;;11.80;99.90;;;;;;5094078;28;20376;-76
2022/05/28 05:13:25;;;;;;;4.72;1.20;;;11.80;99.90;;;;;;5094971;28;20027;-76
2022/05/28 05:15:50;;;;;;;10.23;1.60;;;11.90;99.90;;;;;;5094661;28;20028;-75
2022/05/28 05:18:16;;;;;;;3.63;0.77;;;11.80;99.90;;;;;;5094448;28;20027;-74
2022/05/28 05:20:42;;;;;;;10.43;1.70;;;11.90;99.90;;;;;;5094696;28;20027;-77
2022/05/28 05:23:07;;;;;;;9.82;1.48;;;12.00;99.90;;;;;;5093007;28;20494;-76
2022/05/28 05:25:33;;;;;;;7.82;0.90;;;12.00;99.90;;;;;;5087398;28;20367;-77
2022/05/28 05:27:59;;;;;;;10.48;1.67;;;12.10;99.90;;;;;;5093048;28;20019;-77
2022/05/28 05:30:25;;;;;;;3.40;0.88;;;12.10;99.90;;;;;;5092406;28;20063;-77
2022/05/28 05:32:51;;;;;;;12.35;1.50;;;12.20;99.90;;;;;;5092265;28;20056;-78
2022/05/28 05:35:16;;;;;;;5.50;1.17;;;12.20;99.90;;;;;;5092820;28;20055;-76
2022/05/28 05:37:42;;;;;;;9.32;1.30;;;12.20;99.90;;;;;;5092776;28;20063;-77
2022/05/28 05:40:09;;;;;;;5.95;1.73;;;12.20;99.90;;;;;;5091242;28;20110;-76
2022/05/28 05:42:34;;;;;;;9.00;1.33;;;12.30;99.90;;;;;;5092233;28;20105;-75
2022/05/28 05:45:00;;;;;;;9.25;1.40;;;12.30;99.90;;;;;;5091669;28;20036;-76
2022/05/28 05:47:25;;;;;;;6.03;1.40;;;12.30;99.90;;;;;;5092526;28;20040;-76
2022/05/28 05:49:51;;;;;;;7.85;1.15;;;12.40;99.90;;;;;;5092784;28;20464;-77
2022/05/28 05:52:17;;;;;;;7.10;1.23;;;12.40;99.90;;;;;;5092459;28;20491;-75
2022/05/28 05:54:43;;;;;;;10.73;1.45;;;12.50;99.90;;;;;;5092869;28;20020;-75
2022/05/28 05:57:08;;;;;;;7.78;1.63;;;12.60;99.90;;;;;;5089715;28;20112;-76
2022/05/28 05:59:34;;;;;;;6.75;0.95;;;12.70;99.90;;;;;;5092070;28;20071;-76
2022/05/28 06:02:00;;;;;;;10.00;2.03;;;12.80;99.90;;;;;;5090875;28;20024;-77
2022/05/28 06:04:26;;;;;;;8.82;2.22;;;12.90;99.90;;;;;;5092396;28;20064;-76
2022/05/28 06:06:51;;;;;;;6.07;1.27;;;13.00;99.90;;;;;;5091776;28;20079;-77
2022/05/28 06:09:17;;;;;;;7.10;1.33;;;13.00;99.90;;;;;;5092738;28;20016;-76
2022/05/28 06:11:42;;;;;;;5.40;1.08;;;13.00;99.90;;;;;;5092824;28;20051;-76
2022/05/28 06:14:08;;;;;;;8.07;1.38;;;13.00;99.90;;;;;;5091852;28;20016;-77
2022/05/28 06:16:34;;;;;;;5.90;1.00;;;12.90;99.90;;;;;;5092330;28;20464;-76
2022/05/28 06:19:01;;;;;;;10.35;1.30;;;12.90;99.90;;;;;;5092161;28;20590;-77
2022/05/28 06:21:27;;;;;;;7.72;1.10;;;12.90;99.90;;;;;;5091083;28;20024;-77
2022/05/28 06:23:53;;;;;;;4.32;0.98;;;12.90;99.90;;;;;;5091974;28;20016;-77
2022/05/28 06:26:22;;;;;;;7.72;1.02;;;12.80;99.90;;;;;;5092294;28;20036;-75
2022/05/28 06:28:48;;;;;;;6.63;1.20;;;12.80;99.90;;;;;;5089227;28;20020;-75
2022/05/28 06:31:14;;;;;;;4.95;1.02;;;12.80;99.90;;;;;;5094390;28;20060;-77
2022/05/28 06:33:41;;;;;;;6.32;1.27;;;12.90;99.90;;;;;;5109399;28;20081;-76
2022/05/28 06:36:09;;;;;;;4.05;1.05;;;12.90;99.90;;;;;;5092124;28;20030;-76
2022/05/28 06:38:34;;;;;;;3.58;0.95;;;13.00;99.90;;;;;;5091060;28;20465;-75
2022/05/28 06:41:00;;;;;;;3.25;0.73;;;13.10;99.90;;;;;;5092643;28;20111;-76
2022/05/28 06:43:26;;;;;;;4.85;1.05;;;13.00;99.90;;;;;;5102872;28;20080;-77
2022/05/28 06:45:52;;;;;;;3.42;1.25;;;13.00;99.90;;;;;;5094147;28;20034;-77
2022/05/28 06:48:18;;;;;;;5.95;1.83;;;13.00;99.90;;;;;;5109739;28;20012;-77
2022/05/28 06:51:02;;;;;;;8.25;1.60;;;13.00;99.90;;;;;;5088585;28;20027;-76
2022/05/28 06:53:48;;;;;;;5.32;1.00;;;13.00;99.90;;;;;;5091124;28;20031;-77
2022/05/28 06:56:16;;;;;;;8.93;1.52;;;13.20;99.90;;;;;;5089591;28;20109;-77
2022/05/28 06:58:43;;;;;;;4.85;0.95;;;13.30;99.90;;;;;;5069835;28;20366;-77
2022/05/28 07:01:10;;;;;;;13.38;1.42;;;13.40;99.90;;;;;;5089845;28;20036;-77
2022/05/28 07:03:38;;;;;;;6.63;1.20;;;13.40;99.90;;;;;;5091536;28;20023;-78
2022/05/28 07:06:03;;;;;;;7.38;1.10;;;13.50;99.90;;;;;;5091125;28;20031;-75
2022/05/28 07:08:29;;;;;;;9.70;1.52;;;13.60;99.90;;;;;;5091674;28;20450;-77
2022/05/28 07:11:00;;;;;;;7.55;1.38;;;13.70;99.90;;;;;;5090869;28;20039;-77
2022/05/28 07:13:29;;;;;;;7.55;1.20;;;13.80;99.90;;;;;;5091184;28;20062;-77
2022/05/28 07:15:54;;;;;;;7.57;1.23;;;13.80;99.90;;;;;;5091229;28;20031;-77
2022/05/28 07:18:21;;;;;;;5.45;1.17;;;13.80;99.90;;;;;;5090872;28;20016;-78
2022/05/28 07:20:47;;;;;;;9.73;1.33;;;13.80;99.90;;;;;;5091449;28;20035;-77
2022/05/28 07:23:24;;;;;;;8.55;1.50;;;13.70;99.90;;;;;;5091528;28;20043;-76
2022/05/28 07:26:01;;;;;;;7.28;1.33;;;13.80;99.90;;;;;;5089695;28;20115;-77
2022/05/28 07:28:28;;;;;;;6.10;1.27;;;13.80;99.90;;;;;;5089305;28;20462;-77
2022/05/28 07:31:18;;;;;;;10.07;1.05;;;13.70;99.90;;;;;;5087495;28;20034;-74
2022/05/28 07:33:45;;;;;;;5.90;0.90;;;13.50;99.90;;;;;;5078718;28;20056;-75
2022/05/28 07:36:14;;;;;;;6.25;2.08;;;13.50;99.90;;;;;;5089670;28;20032;-75
2022/05/28 07:38:41;;;;;;;8.48;1.75;;;13.50;99.90;;;;;;5087575;28;20020;-75
2022/05/28 07:41:10;;;;;;;5.13;1.20;;;13.70;99.90;;;;;;5090405;28;20317;-75
2022/05/28 07:43:36;;;;;;;7.20;1.63;;;13.90;99.90;;;;;;5091309;28;20020;-76
2022/05/28 07:46:03;;;;;;;3.15;1.00;;;14.00;99.90;;;;;;5091362;28;20036;-75
2022/05/28 07:48:29;;;;;;;10.35;1.23;;;13.90;99.90;;;;;;5091495;28;20012;-73
2022/05/28 07:50:54;;;;;;;4.07;1.08;;;14.10;99.90;;;;;;5091514;28;20030;-77
2022/05/28 07:53:20;;;;;;;9.30;1.35;;;14.10;99.90;;;;;;5091336;28;20036;-76
2022/05/28 07:55:46;;;;;;;6.75;1.00;;;14.20;99.90;;;;;;5088760;28;20032;-75
2022/05/28 07:58:14;;;;;;;3.92;1.10;;;14.20;99.90;;;;;;5085466;28;20048;-74
2022/05/28 08:00:46;;;;;;;3.90;1.00;;;14.30;99.90;;;;;;5090811;28;20040;-76
2022/05/28 08:03:13;;;;;;;11.55;2.40;;;14.40;99.90;;;;;;5091220;28;20043;-74
2022/05/28 08:05:41;;;;;;;9.65;1.60;;;14.30;99.90;;;;;;5090780;28;20023;-74
2022/05/28 08:08:07;;;;;;;8.23;1.42;;;14.40;99.90;;;;;;5090833;28;20039;-77
2022/05/28 08:10:33;;;;;;;4.28;1.30;;;14.50;99.90;;;;;;5091449;28;20016;-76
2022/05/28 08:13:01;;;;;;;9.40;2.05;;;14.30;99.90;;;;;;5089992;28;20035;-78
2022/05/28 08:15:27;;;;;;;6.85;1.30;;;15.20;99.90;;;;;;5091676;28;20035;-80
2022/05/28 08:17:52;;;;;;;10.32;1.75;;;14.10;99.90;;;;;;5091752;28;20024;-79
2022/05/28 08:20:18;;;;;;;10.85;1.83;;;14.10;99.90;;;;;;5091229;28;20020;-81
2022/05/28 08:25:28;;;;;;;9.82;1.38;;;14.10;99.90;;;;;;5094885;28;20081;-80
2022/05/28 08:27:56;;;;;;;10.20;1.20;;;14.30;99.90;;;;;;5095183;28;20462;-80
2022/05/28 08:30:22;;;;;;;4.60;0.95;;;14.60;99.90;;;;;;5095305;28;20371;-78
2022/05/28 08:32:48;;;;;;;9.23;1.65;;;14.70;99.90;;;;;;5095991;28;20054;-78
2022/05/28 08:35:13;;;;;;;5.75;1.40;;;14.80;99.90;;;;;;5095826;28;20064;-79
2022/05/28 08:37:39;;;;;;;7.97;1.35;;;14.90;99.90;;;;;;5098528;28;20024;-77
2022/05/28 08:40:05;;;;;;;10.45;1.42;;;14.80;99.90;;;;;;5098122;28;20034;-78
2022/05/28 08:42:31;;;;;;;9.50;1.17;;;14.60;99.90;;;;;;5095445;28;20127;-77
2022/05/28 08:44:59;;;;;;;8.02;1.10;;;14.50;99.90;;;;;;5095065;28;20524;-80
2022/05/28 08:47:29;;;;;;;7.15;1.13;;;14.40;99.90;;;;;;5085805;28;20043;-78
2022/05/28 08:49:54;;;;;;;4.70;1.00;;;14.30;99.90;;;;;;5095582;28;20069;-82
2022/05/28 08:52:28;;;;;;;8.40;1.75;;;14.40;99.90;;;;;;5098797;28;20048;-80
2022/05/28 08:55:08;;;;;;;5.00;1.17;;;14.40;99.90;;;;;;5095302;28;20031;-79
2022/05/28 08:57:46;;;;;;;6.55;1.33;;;14.40;99.90;;;;;;5092490;28;20051;-79
2022/05/28 09:00:18;;;;;;;6.90;1.70;;;14.50;99.90;;;;;;5091025;28;20040;-79
2022/05/28 09:02:49;;;;;;;10.70;1.40;;;14.60;99.90;;;;;;5094651;28;20388;-79
2022/05/28 09:05:19;;;;;;;3.85;0.93;;;14.50;99.90;;;;;;5082187;28;20127;-80
2022/05/28 09:07:45;;;;;;;3.35;1.20;;;14.50;99.90;;;;;;5082075;28;20052;-80
2022/05/28 09:10:11;;;;;;;6.78;1.63;;;14.50;99.90;;;;;;5094506;28;20513;-80
2022/05/28 09:12:53;;;;;;;3.28;1.00;;;14.50;99.90;;;;;;5094530;28;20059;-81
2022/05/28 09:15:18;;;;;;;5.43;1.00;;;14.60;99.90;;;;;;5094554;28;20028;-78
2022/05/28 09:17:48;;;;;;;3.95;1.10;;;14.70;99.90;;;;;;5094889;28;20020;-79
2022/05/28 09:20:21;;;;;;;5.93;1.50;;;14.70;98.90;;;;;;5094381;28;20084;-79
2022/05/28 09:22:47;;;;;;;3.80;1.13;;;14.70;99.30;;;;;;5094742;28;20104;-79
2022/05/28 09:25:16;;;;;;;6.78;1.70;;;14.90;99.90;;;;;;5090939;28;20415;-79
2022/05/28 09:28:06;;;;;;;5.20;1.27;;;14.90;98.80;;;;;;5092093;28;20032;-78
2022/05/28 09:30:57;;;;;;;7.40;1.07;;;15.00;99.00;;;;;;5094198;28;20051;-77
2022/05/28 09:33:35;;;;;;;8.30;1.27;;;14.90;98.40;;;;;;5089051;28;20034;-80
2022/05/28 09:36:27;;;;;;;8.43;1.80;;;15.00;98.00;;;;;;5086538;28;20464;-78
2022/05/28 09:38:58;;;;;;;6.22;1.55;;;15.00;98.70;;;;;;5094539;28;20020;-80
2022/05/28 09:41:36;;;;;;;5.45;0.90;;;15.10;99.00;;;;;;5094316;28;20016;-79
2022/05/28 09:44:34;;;;;;;5.40;0.88;;;15.20;98.70;;;;;;5090287;28;20025;-80
2022/05/28 09:47:11;;;;;;;1.65;0.70;;;15.00;96.70;;;;;;5085469;28;20038;-81
2022/05/28 09:50:15;;;;;;;6.55;1.17;;;14.80;96.60;;;;;;5097031;28;20016;-82
2022/05/28 09:54:16;;;;;;;5.45;1.27;;;14.90;97.00;;;;;;5079741;28;20047;-82
2022/05/28 09:55:26;;;;;;;7.43;1.48;;;14.90;96.30;;;;;;5088683;28;20034;-82
2022/05/28 09:57:59;;;;;;;7.53;1.40;;;14.90;97.20;;;;;;5081019;28;20119;-85
2022/05/28 10:00:26;;;;;;;8.35;0.98;;;14.90;97.80;;;;;;5109063;28;20360;-85
2022/05/28 10:05:53;;;;;;;4.55;1.00;;;15.20;97.00;;;;;;5098160;28;20088;-84
2022/05/28 10:08:19;;;;;;;4.18;1.17;;;15.20;96.50;;;;;;5094039;28;20103;-85
2022/05/28 10:10:54;;;;;;;4.85;1.70;;;15.40;99.10;;;;;;5103991;28;20044;-83
2022/05/28 10:13:23;;;;;;;4.97;1.20;;;15.40;98.00;;;;;;5101101;28;20376;-84
2022/05/28 10:15:52;;;;;;;8.32;1.40;;;15.40;96.90;;;;;;5097740;28;20476;-86
2022/05/28 10:18:34;;;;;;;6.70;1.17;;;15.40;96.40;;;;;;5098107;28;20069;-85
2022/05/28 10:21:07;;;;;;;6.15;1.35;;;15.30;96.70;;;;;;5101622;28;20093;-87
2022/05/28 10:23:35;;;;;;;8.05;1.45;;;15.50;98.00;;;;;;5098662;28;20074;-88
2022/05/28 10:26:02;;;;;;;6.07;1.13;;;15.40;97.80;;;;;;5103850;28;20067;-84
2022/05/28 10:28:29;;;;;;;7.38;2.08;;;15.20;96.70;;;;;;5110355;28;20027;-88
2022/05/28 10:30:56;;;;;;;4.47;1.40;;;15.20;99.40;;;;;;5112917;28;20051;-87
2022/05/28 10:33:26;;;;;;;4.95;1.80;;;15.10;98.10;;;;;;5114576;28;20019;-89
2022/05/28 10:35:52;;;;;;;4.57;1.10;;;15.10;97.70;;;;;;5111191;28;20394;-85
2022/05/28 10:38:25;;;;;;;6.15;1.20;;;15.30;98.10;;;;;;5117017;28;20019;-87
2022/05/28 10:40:56;;;;;;;6.00;1.40;;;15.50;98.40;;;;;;5116002;28;20106;-87
2022/05/28 10:43:38;;;;;;;10.43;1.95;;;15.60;98.00;;;;;;5128579;28;20049;-88
2022/05/28 10:46:16;;;;;;;8.18;1.42;;;15.70;97.60;;;;;;5114238;28;20433;-88
2022/05/28 10:49:02;;;;;;;7.70;1.17;;;15.60;96.90;;;;;;5101068;28;20021;-89
2022/05/28 10:51:48;;;;;;;3.83;1.05;;;15.40;95.60;;;;;;5096925;28;20034;-86
2022/05/28 10:54:27;;;;;;;5.68;1.50;;;15.50;97.40;;;;;;5112718;28;20042;-88
2022/05/28 10:56:55;;;;;;;6.93;1.73;;;15.60;99.20;;;;;;5102900;28;20020;-86
2022/05/28 10:59:58;;;;;;;7.57;1.00;;;15.50;98.10;;;;;;5109339;28;20049;-87
2022/05/28 11:02:42;;;;;;;6.65;1.85;;;15.50;98.90;;;;;;5100266;28;20073;-85
2022/05/28 11:05:20;;;;;;;5.80;1.83;;;15.50;97.10;;;;;;5102554;28;20445;-86
2022/05/28 11:07:59;;;;;;;6.88;2.28;;;15.50;96.40;;;;;;5096494;28;20069;-86
2022/05/28 11:11:02;;;;;;;7.53;2.05;;;15.30;96.60;;;;;;5102618;28;20035;-86
2022/05/28 11:13:39;;;;;;;6.75;1.23;;;15.50;97.30;;;;;;5098246;28;20016;-88
2022/05/28 11:16:08;;;;;;;7.47;1.30;;;15.40;96.60;;;;;;5099400;28;20583;-88
2022/05/28 11:19:07;;;;;;;9.63;1.45;;;15.40;96.50;;;;;;5108009;28;20019;-86
2022/05/28 11:21:51;;;;;;;6.30;1.45;;;15.50;97.70;;;;;;5107501;28;20016;-86
2022/05/28 11:24:37;;;;;;;4.93;0.93;;;15.70;97.10;;;;;;5099291;28;20020;-87
2022/05/28 11:27:24;;;;;;;10.35;1.33;;;15.80;97.10;;;;;;5092847;28;20039;-86
2022/05/28 11:30:04;;;;;;;10.05;1.20;;;16.00;96.70;;;;;;5094145;28;20027;-86
2022/05/28 11:33:00;;;;;;;7.13;1.17;;;16.20;97.30;;;;;;5088608;28;20028;-86
2022/05/28 11:35:34;;;;;;;5.15;1.40;;;16.30;96.60;;;;;;5109240;28;20012;-89
2022/05/28 11:38:10;;;;;;;4.95;1.02;;;16.20;95.70;;;;;;5118240;28;20102;-88
2022/05/28 11:40:48;;;;;;;5.00;1.30;;;15.90;96.20;;;;;;5105278;28;20024;-89
2022/05/28 11:43:28;;;;;;;6.90;1.80;;;15.70;96.70;;;;;;5115763;28;20023;-88
2022/05/28 11:46:04;;;;;;;8.55;1.65;;;15.70;97.60;;;;;;5105657;28;20036;-86
2022/05/28 11:51:28;;;;;;;7.13;1.85;;;15.40;97.40;;;;;;5081221;28;20400;-86
2022/05/28 11:54:10;;;;;;;;;;;15.50;97.90;;;;;;5076077;28;20052;-86
2022/05/28 11:56:36;;;;;;;7.13;1.23;;;15.70;96.30;;;;;;5083767;28;19943;-85
2022/05/28 11:59:13;;;;;;;8.10;1.55;;;15.80;95.90;;;;;;5093663;28;20051;-87
2022/05/28 12:02:02;;;;;;;4.47;1.20;;;15.70;97.20;;;;;;5092268;28;20082;-87
2022/05/28 12:04:30;;;;;;;8.50;1.55;;;15.60;96.80;;;;;;5077182;28;20111;-87
2022/05/28 12:07:29;;;;;;;6.28;0.98;;;15.50;96.90;;;;;;5083577;28;20055;-87
2022/05/28 12:09:55;;;;;;;8.05;1.45;;;16.40;95.90;;;;;;5091942;28;20039;-84
2022/05/28 12:12:53;;;;;;;9.95;1.50;;;15.60;97.60;;;;;;5099676;28;20024;-87
2022/05/28 12:15:24;;;;;;;5.47;2.30;;;15.70;98.30;;;;;;5093428;28;20024;-87
2022/05/28 12:18:04;;;;;;;;;;;15.60;98.50;;;;;;5097970;28;20020;-88
2022/05/28 12:20:32;;;;;;;;;;;15.60;98.60;;;;;;5097904;28;19998;-79
2022/05/28 12:23:03;;;;;;;5.70;1.48;;;15.80;98.00;;;;;;5091513;28;20403;-83
2022/05/28 12:25:29;;;;;;;6.47;1.77;;;15.90;98.00;;;;;;5095070;28;20032;-83
2022/05/28 12:27:54;;;;;;;5.18;1.67;;;16.10;97.50;;;;;;5094420;28;20514;-83
2022/05/28 12:30:29;;;;;;;15.15;2.50;;;16.30;98.00;;;;;;5094814;28;20016;-81
2022/05/28 12:32:57;;;;;;;4.50;1.30;;;16.50;97.20;;;;;;5095494;28;20480;-83
2022/05/28 12:35:42;;;;;;;10.20;1.83;;;16.50;96.10;;;;;;5092584;28;20104;-83
2022/05/28 12:38:11;;;;;;;6.35;1.45;;;16.70;96.80;;;;;;5095762;28;20055;-84
2022/05/28 12:40:59;;;;;;;5.38;1.45;;;16.70;96.70;;;;;;5095473;28;20095;-84
2022/05/28 12:43:33;;;;;;;5.20;1.10;;;16.70;96.30;;;;;;5083623;28;20467;-84
2022/05/28 12:46:35;;;;;;;7.50;1.60;;;16.60;96.60;;;;;;5082115;28;20139;-83
2022/05/28 12:49:23;;;;;;;5.28;0.95;;;16.50;95.20;;;;;;5104298;28;20058;-82
2022/05/28 12:52:09;;;;;;;7.85;1.35;;;16.40;95.20;;;;;;5088398;28;20020;-81
2022/05/28 12:54:36;;;;;;;7.45;0.98;;;16.20;94.50;;;;;;5091162;28;20024;-84
2022/05/28 12:57:09;;;;;;;4.47;1.40;;;16.20;94.70;;;;;;5090267;28;20479;-82
2022/05/28 12:59:41;;;;;;;4.45;1.40;;;16.20;95.80;;;;;;5100270;28;20044;-85
2022/05/28 13:02:16;;;;;;;4.75;1.30;;;16.10;95.20;;;;;;5096377;28;20502;-84
2022/05/28 13:05:15;;;;;;;8.18;1.52;;;15.90;94.10;;;;;;5089956;28;20025;-84
2022/05/28 13:07:57;;;;;;;7.93;1.52;;;16.00;95.50;;;;;;5081953;28;20048;-84
2022/05/28 13:10:28;;;;;;;7.25;1.45;;;16.10;96.20;;;;;;5088877;28;20082;-84
2022/05/28 13:13:08;;;;;;;7.38;1.00;;;16.20;95.80;;;;;;5092382;28;20056;-84